createdAt,value
2019-03-06T00:00:36.382Z,3.53
2019-03-06T00:03:04.894Z,3.23
2019-03-06T00:05:34.227Z,3.53
2019-03-06T00:08:02.505Z,3.40
2019-03-06T00:10:32.196Z,3.83
2019-03-06T00:13:00.423Z,3.33
2019-03-06T00:15:28.681Z,3.10
2019-03-06T00:17:57.159Z,3.63
2019-03-06T00:20:25.417Z,3.50
2019-03-06T00:22:53.694Z,3.67
2019-03-06T00:25:21.955Z,3.30
2019-03-06T00:27:50.234Z,4.37
2019-03-06T00:30:20.048Z,3.90
2019-03-06T00:32:48.397Z,3.07
2019-03-06T00:35:30.522Z,3.90
2019-03-06T00:37:58.806Z,3.30
2019-03-06T00:40:34.660Z,3.50
2019-03-06T00:43:03.001Z,3.27
2019-03-06T00:45:31.262Z,3.23
2019-03-06T00:48:01.593Z,3.47
2019-03-06T00:50:29.921Z,3.00
2019-03-06T00:52:58.401Z,3.37
2019-03-06T00:55:26.737Z,3.50
2019-03-06T00:57:54.997Z,4.13
2019-03-06T01:00:26.962Z,3.00
2019-03-06T01:02:55.291Z,3.27
2019-03-06T01:05:24.445Z,3.03
2019-03-06T01:07:52.873Z,4.13
2019-03-06T01:10:21.150Z,3.87
2019-03-06T01:12:49.478Z,3.90
2019-03-06T01:15:18.232Z,4.80
2019-03-06T01:17:46.480Z,3.90
2019-03-06T01:20:14.965Z,3.97
2019-03-06T01:22:43.307Z,3.70
2019-03-06T01:25:13.125Z,3.27
2019-03-06T01:27:41.384Z,3.90
2019-03-06T01:30:16.877Z,3.30
2019-03-06T01:32:46.707Z,3.63
2019-03-06T01:35:16.632Z,3.40
2019-03-06T01:37:58.938Z,3.40
2019-03-06T01:40:43.710Z,3.00
2019-03-06T01:43:13.600Z,3.33
2019-03-06T01:45:42.593Z,3.37
2019-03-06T01:48:10.845Z,3.97
2019-03-06T01:50:39.062Z,4.03
2019-03-06T01:53:07.321Z,4.00
2019-03-06T01:55:35.601Z,3.40
2019-03-06T01:58:04.114Z,4.00
2019-03-06T02:00:32.460Z,3.83
2019-03-06T02:03:00.757Z,3.63
2019-03-06T02:05:29.516Z,3.63
2019-03-06T02:07:57.949Z,4.30
2019-03-06T02:10:26.239Z,4.10
2019-03-06T02:12:54.525Z,3.97
2019-03-06T02:15:22.880Z,4.60
2019-03-06T02:17:51.129Z,3.73
2019-03-06T02:20:19.336Z,3.70
2019-03-06T02:22:47.762Z,3.50
2019-03-06T02:25:16.108Z,3.50
2019-03-06T02:27:44.577Z,4.37
2019-03-06T02:30:22.374Z,4.27
2019-03-06T02:32:52.581Z,5.77
2019-03-06T02:35:21.134Z,4.63
2019-03-06T02:37:49.409Z,5.17
2019-03-06T02:40:17.684Z,4.70
2019-03-06T02:42:45.949Z,4.50
2019-03-06T02:45:15.669Z,4.67
2019-03-06T02:47:43.979Z,4.83
2019-03-06T02:50:13.630Z,3.87
2019-03-06T02:52:41.971Z,4.50
2019-03-06T02:55:11.420Z,4.33
2019-03-06T02:57:41.313Z,4.63
2019-03-06T03:00:23.572Z,4.57
2019-03-06T03:02:53.174Z,5.00
2019-03-06T03:05:23.094Z,4.73
2019-03-06T03:07:51.354Z,5.03
2019-03-06T03:10:19.632Z,4.47
2019-03-06T03:12:47.918Z,5.27
2019-03-06T03:15:16.437Z,5.03
2019-03-06T03:17:44.715Z,4.63
2019-03-06T03:20:14.981Z,3.80
2019-03-06T03:22:42.985Z,4.63
2019-03-06T03:25:11.324Z,4.57
2019-03-06T03:27:39.602Z,4.00
2019-03-06T03:30:09.405Z,3.93
2019-03-06T03:32:37.687Z,4.10
2019-03-06T03:35:06.026Z,4.60
2019-03-06T03:37:34.380Z,4.10
2019-03-06T03:40:03.006Z,5.03
2019-03-06T03:42:31.395Z,3.67
2019-03-06T03:44:59.659Z,4.30
2019-03-06T03:47:27.950Z,4.53
2019-03-06T03:49:56.215Z,3.90
2019-03-06T03:52:24.504Z,4.20
2019-03-06T03:54:53.535Z,4.27
2019-03-06T03:57:21.814Z,6.00
2019-03-06T03:59:50.150Z,4.40
2019-03-06T04:02:18.453Z,5.13
2019-03-06T04:04:46.722Z,4.50
2019-03-06T04:07:15.005Z,4.13
2019-03-06T04:09:43.469Z,4.03
2019-03-06T04:12:13.293Z,4.50
2019-03-06T04:14:41.564Z,4.10
2019-03-06T04:17:10.074Z,4.70
2019-03-06T04:19:38.330Z,4.60
2019-03-06T04:22:06.623Z,5.23
2019-03-06T04:24:34.959Z,5.47
2019-03-06T04:27:03.234Z,5.63
2019-03-06T04:29:31.566Z,5.03
2019-03-06T04:32:00.105Z,4.50
2019-03-06T04:34:28.369Z,4.97
2019-03-06T04:36:56.913Z,5.43
2019-03-06T04:39:25.174Z,5.10
2019-03-06T04:41:53.502Z,4.37
2019-03-06T04:44:22.261Z,3.77
2019-03-06T04:46:50.539Z,4.47
2019-03-06T04:49:19.018Z,4.50
2019-03-06T04:51:47.310Z,4.47
2019-03-06T04:54:15.572Z,4.67
2019-03-06T04:56:43.857Z,5.40
2019-03-06T04:59:12.118Z,6.13
2019-03-06T05:01:40.397Z,5.23
2019-03-06T05:04:08.695Z,4.80
2019-03-06T05:06:36.951Z,6.10
2019-03-06T05:09:05.910Z,4.77
2019-03-06T05:11:34.177Z,5.90
2019-03-06T05:14:02.477Z,5.83
2019-03-06T05:16:38.273Z,5.33
2019-03-06T05:19:06.610Z,5.90
2019-03-06T05:21:34.840Z,6.30
2019-03-06T05:24:03.195Z,5.13
2019-03-06T05:26:31.513Z,5.23
2019-03-06T05:28:59.864Z,5.30
2019-03-06T05:31:28.122Z,4.30
2019-03-06T05:33:56.438Z,5.97
2019-03-06T05:36:26.251Z,5.70
2019-03-06T05:39:04.874Z,5.37
2019-03-06T05:41:33.134Z,6.40
2019-03-06T05:44:01.413Z,5.80
2019-03-06T05:46:29.771Z,4.93
2019-03-06T05:48:59.023Z,5.27
2019-03-06T05:51:27.546Z,6.10
2019-03-06T05:53:55.825Z,5.23
2019-03-06T05:56:24.857Z,5.93
2019-03-06T05:58:53.145Z,5.00
2019-03-06T06:01:21.408Z,5.77
2019-03-06T06:03:49.793Z,5.00
2019-03-06T06:06:18.053Z,5.50
2019-03-06T06:08:46.342Z,6.27
2019-03-06T06:11:14.608Z,5.60
2019-03-06T06:13:42.894Z,5.03
2019-03-06T06:16:11.346Z,4.90
2019-03-06T06:18:39.633Z,5.67
2019-03-06T06:21:18.589Z,5.80
2019-03-06T06:23:58.757Z,5.70
2019-03-06T06:26:27.017Z,6.80
2019-03-06T06:28:55.287Z,6.90
2019-03-06T06:31:23.581Z,5.93
2019-03-06T06:33:51.856Z,5.80
2019-03-06T06:36:21.101Z,5.43
2019-03-06T06:38:50.782Z,5.77
2019-03-06T06:41:19.065Z,6.07
2019-03-06T06:43:47.337Z,6.30
2019-03-06T06:46:15.622Z,6.43
2019-03-06T06:48:43.890Z,5.83
2019-03-06T06:51:13.905Z,6.27
2019-03-06T06:53:46.653Z,6.60
2019-03-06T06:56:32.982Z,6.13
2019-03-06T06:59:08.758Z,6.13
2019-03-06T07:02:04.179Z,7.07
2019-03-06T07:04:47.646Z,6.83
2019-03-06T07:07:27.078Z,7.50
2019-03-06T07:09:56.977Z,8.90
2019-03-06T07:12:26.906Z,7.70
2019-03-06T07:14:56.810Z,7.40
2019-03-06T07:17:26.734Z,12.70
2019-03-06T07:19:57.444Z,27.40
2019-03-06T07:22:27.366Z,22.63
2019-03-06T07:25:00.411Z,13.30
2019-03-06T07:27:30.333Z,9.23
2019-03-06T07:30:08.889Z,13.33
2019-03-06T07:32:55.141Z,12.27
2019-03-06T07:35:43.229Z,11.10
2019-03-06T07:38:11.993Z,9.20
2019-03-06T07:40:58.489Z,10.03
2019-03-06T07:43:46.418Z,8.97
2019-03-06T07:46:19.493Z,9.17
2019-03-06T07:48:58.479Z,8.70
2019-03-06T07:51:37.281Z,9.40
2019-03-06T07:54:16.546Z,11.33
2019-03-06T07:56:49.843Z,9.60
2019-03-06T07:59:18.194Z,9.47
2019-03-06T08:01:56.417Z,9.80
2019-03-06T08:04:24.702Z,8.33
2019-03-06T08:06:54.618Z,9.37
2019-03-06T08:09:22.906Z,8.47
2019-03-06T08:11:55.694Z,8.30
2019-03-06T08:14:28.386Z,7.67
2019-03-06T08:16:58.465Z,7.67
2019-03-06T08:19:34.185Z,7.10
2019-03-06T08:22:04.082Z,6.17
2019-03-06T08:24:36.919Z,7.17
2019-03-06T08:27:05.178Z,7.00
2019-03-06T08:29:33.466Z,7.30
2019-03-06T08:32:02.694Z,6.43
2019-03-06T08:34:31.254Z,8.00
2019-03-06T08:36:59.518Z,8.90
2019-03-06T08:39:27.806Z,8.30
2019-03-06T08:41:56.066Z,8.00
2019-03-06T08:44:24.350Z,8.27
2019-03-06T08:47:00.262Z,7.23
2019-03-06T08:49:36.189Z,6.17
2019-03-06T08:52:12.006Z,7.63
2019-03-06T08:54:41.938Z,5.93
2019-03-06T08:57:11.841Z,6.63
2019-03-06T08:59:41.763Z,7.03
2019-03-06T09:02:20.530Z,6.37
2019-03-06T09:05:06.608Z,7.07
2019-03-06T09:07:39.394Z,6.97
2019-03-06T09:10:09.994Z,7.27
2019-03-06T09:12:57.732Z,6.47
2019-03-06T09:15:42.594Z,5.67
2019-03-06T09:18:15.264Z,5.10
2019-03-06T09:20:50.974Z,4.73
2019-03-06T09:23:35.963Z,4.80
2019-03-06T09:26:05.953Z,4.17
2019-03-06T09:28:36.058Z,4.17
2019-03-06T09:31:11.982Z,4.60
2019-03-06T09:33:50.726Z,3.83
2019-03-06T09:36:29.671Z,4.73
2019-03-06T09:39:08.441Z,3.80
2019-03-06T09:41:39.125Z,3.83
2019-03-06T09:44:15.058Z,3.67
2019-03-06T09:46:53.633Z,3.00
2019-03-06T09:49:41.589Z,3.17
2019-03-06T09:52:28.002Z,3.27
2019-03-06T09:55:04.129Z,2.50
2019-03-06T09:57:34.053Z,3.90
2019-03-06T10:00:19.151Z,3.73
2019-03-06T10:02:52.052Z,4.63
2019-03-06T10:05:22.206Z,4.00
2019-03-06T10:07:52.127Z,4.57
2019-03-06T10:10:47.565Z,4.00
2019-03-06T10:13:11.726Z,3.77
2019-03-06T10:15:41.626Z,3.03
2019-03-06T10:18:11.557Z,3.50
2019-03-06T10:20:39.817Z,3.80
2019-03-06T10:23:08.458Z,2.90
2019-03-06T10:25:36.686Z,3.20
2019-03-06T10:28:06.543Z,2.63
2019-03-06T10:30:35.165Z,2.90
2019-03-06T10:33:03.517Z,3.00
2019-03-06T10:35:31.775Z,2.83
2019-03-06T10:38:00.336Z,2.10
2019-03-06T10:40:28.590Z,2.53
2019-03-06T10:42:57.070Z,1.80
2019-03-06T10:45:25.405Z,1.63
2019-03-06T10:47:53.889Z,1.63
2019-03-06T10:50:27.057Z,1.70
2019-03-06T10:52:52.629Z,1.50
2019-03-06T10:55:20.993Z,1.60
2019-03-06T10:57:49.529Z,1.63
2019-03-06T11:00:20.129Z,1.37
2019-03-06T11:02:48.854Z,1.50
2019-03-06T11:05:19.749Z,1.33
2019-03-06T11:07:49.973Z,1.27
2019-03-06T11:10:23.664Z,1.40
2019-03-06T11:12:48.659Z,1.40
2019-03-06T11:15:21.710Z,1.73
2019-03-06T11:17:50.362Z,1.40
2019-03-06T11:20:20.714Z,0.90
2019-03-06T11:22:49.550Z,1.43
2019-03-06T11:25:19.204Z,1.23
2019-03-06T11:27:48.034Z,1.43
2019-03-06T11:30:17.856Z,1.10
2019-03-06T11:32:54.272Z,1.37
2019-03-06T11:35:17.391Z,1.20
2019-03-06T11:37:45.659Z,1.00
2019-03-06T11:40:15.167Z,1.50
2019-03-06T11:42:43.430Z,1.03
2019-03-06T11:45:13.510Z,1.13
2019-03-06T11:47:42.094Z,1.00
2019-03-06T11:50:11.762Z,1.37
2019-03-06T11:52:40.094Z,1.30
2019-03-06T11:55:09.718Z,1.77
2019-03-06T11:57:38.487Z,1.27
2019-03-06T12:00:12.614Z,1.80
2019-03-06T12:02:41.455Z,1.33
2019-03-06T12:05:09.880Z,1.03
2019-03-06T12:07:38.137Z,1.50
2019-03-06T12:10:08.296Z,1.30
2019-03-06T12:12:36.998Z,0.90
2019-03-06T12:15:06.925Z,1.37
2019-03-06T12:17:35.254Z,0.87
2019-03-06T12:20:08.072Z,1.37
2019-03-06T12:22:35.923Z,1.40
2019-03-06T12:25:05.751Z,1.33
2019-03-06T12:27:34.115Z,1.30
2019-03-06T12:30:05.219Z,0.90
2019-03-06T12:32:33.481Z,1.20
2019-03-06T12:35:01.770Z,1.30
2019-03-06T12:37:30.042Z,1.20
2019-03-06T12:39:58.332Z,0.93
2019-03-06T12:42:27.489Z,1.30
2019-03-06T12:44:55.753Z,1.20
2019-03-06T12:47:24.042Z,1.10
2019-03-06T12:49:52.782Z,1.00
2019-03-06T12:52:21.074Z,1.77
2019-03-06T12:54:49.329Z,1.57
2019-03-06T12:57:17.620Z,1.30
2019-03-06T12:59:45.882Z,1.50
2019-03-06T13:02:15.351Z,1.10
2019-03-06T13:04:43.614Z,1.13
2019-03-06T13:07:11.905Z,1.40
2019-03-06T13:09:40.175Z,1.03
2019-03-06T13:12:08.561Z,1.03
2019-03-06T13:14:37.311Z,1.00
2019-03-06T13:17:05.673Z,1.20
2019-03-06T13:19:33.933Z,1.40
2019-03-06T13:22:10.747Z,1.20
2019-03-06T13:24:32.194Z,1.20
2019-03-06T13:27:01.466Z,1.40
2019-03-06T13:29:31.265Z,1.40
2019-03-06T13:31:59.559Z,1.40
2019-03-06T13:34:29.457Z,1.30
2019-03-06T13:36:57.747Z,1.70
2019-03-06T13:39:26.005Z,1.30
2019-03-06T13:41:55.570Z,1.70
2019-03-06T13:44:23.821Z,1.30
2019-03-06T13:46:52.233Z,1.10
2019-03-06T13:49:21.821Z,1.03
2019-03-06T13:51:50.106Z,1.40
2019-03-06T13:54:19.506Z,1.50
2019-03-06T13:56:48.243Z,1.30
2019-03-06T13:59:16.497Z,1.80
2019-03-06T14:01:44.858Z,1.63
2019-03-06T14:04:13.117Z,1.80
2019-03-06T14:06:41.702Z,1.53
2019-03-06T14:09:11.633Z,1.87
2019-03-06T14:11:39.981Z,1.30
2019-03-06T14:14:08.252Z,3.07
2019-03-06T14:16:37.557Z,1.70
2019-03-06T14:19:05.830Z,2.57
2019-03-06T14:21:34.094Z,2.03
2019-03-06T14:24:02.489Z,1.50
2019-03-06T14:26:30.759Z,1.47
2019-03-06T14:28:59.041Z,1.60
2019-03-06T14:31:27.770Z,1.70
2019-03-06T14:33:56.058Z,1.80
2019-03-06T14:36:24.422Z,1.83
2019-03-06T14:38:53.706Z,1.73
2019-03-06T14:41:23.042Z,2.10
2019-03-06T14:43:51.433Z,1.60
2019-03-06T14:46:21.221Z,1.60
2019-03-06T14:48:49.506Z,1.70
2019-03-06T14:51:17.770Z,1.73
2019-03-06T14:53:46.059Z,1.60
2019-03-06T14:56:14.382Z,2.10
2019-03-06T14:58:42.946Z,2.13
2019-03-06T15:01:11.276Z,2.27
2019-03-06T15:03:39.561Z,2.30
2019-03-06T15:06:09.465Z,2.63
2019-03-06T15:08:38.070Z,2.20
2019-03-06T15:11:08.221Z,2.03
2019-03-06T15:13:36.725Z,2.57
2019-03-06T15:16:05.053Z,1.97
2019-03-06T15:18:33.410Z,2.27
2019-03-06T15:21:01.746Z,2.27
2019-03-06T15:23:30.294Z,1.60
2019-03-06T15:25:58.563Z,1.90
2019-03-06T15:28:27.056Z,1.87
2019-03-06T15:30:55.442Z,1.77
2019-03-06T15:33:25.768Z,2.10
2019-03-06T15:35:54.022Z,2.10
2019-03-06T15:38:22.374Z,1.83
2019-03-06T15:40:50.644Z,2.00
2019-03-06T15:43:19.959Z,2.13
2019-03-06T15:45:48.218Z,2.03
2019-03-06T15:48:16.509Z,2.20
2019-03-06T15:50:44.782Z,2.57
2019-03-06T15:53:14.134Z,2.43
2019-03-06T15:55:42.462Z,2.53
2019-03-06T15:58:10.948Z,2.20
2019-03-06T16:00:46.217Z,2.27
2019-03-06T16:03:10.754Z,2.10
2019-03-06T16:05:39.538Z,2.17
2019-03-06T16:08:08.302Z,2.23
2019-03-06T16:10:36.654Z,2.93
2019-03-06T16:13:06.085Z,2.57
2019-03-06T16:15:34.841Z,2.23
2019-03-06T16:18:07.182Z,3.37
2019-03-06T16:20:36.491Z,2.43
2019-03-06T16:23:05.050Z,2.40
2019-03-06T16:25:36.735Z,2.23
2019-03-06T16:28:03.380Z,2.70
2019-03-06T16:30:31.730Z,3.20
2019-03-06T16:33:00.066Z,3.43
2019-03-06T16:35:28.522Z,3.67
2019-03-06T16:37:56.964Z,3.70
2019-03-06T16:40:25.616Z,3.47
2019-03-06T16:42:54.409Z,2.90
2019-03-06T16:45:23.272Z,2.83
2019-03-06T16:47:52.104Z,3.97
2019-03-06T16:50:21.057Z,3.73
2019-03-06T16:52:49.440Z,3.23
2019-03-06T16:55:19.646Z,3.70
2019-03-06T16:57:47.984Z,3.20
2019-03-06T17:00:17.793Z,2.97
2019-03-06T17:02:46.163Z,4.50
2019-03-06T17:05:15.978Z,3.80
2019-03-06T17:07:44.247Z,4.70
2019-03-06T17:10:12.733Z,3.97
2019-03-06T17:12:41.062Z,4.00
2019-03-06T17:15:10.166Z,4.10
2019-03-06T17:17:38.437Z,4.40
2019-03-06T17:20:08.412Z,3.93
2019-03-06T17:22:36.721Z,3.60
2019-03-06T17:25:05.369Z,4.30
2019-03-06T17:27:33.634Z,3.07
2019-03-06T17:30:01.918Z,3.80
2019-03-06T17:32:30.177Z,4.00
2019-03-06T17:34:58.657Z,4.50
2019-03-06T17:37:26.911Z,4.50
2019-03-06T17:39:55.170Z,4.50
2019-03-06T17:42:24.250Z,5.80
2019-03-06T17:44:52.585Z,6.07
2019-03-06T17:47:21.102Z,5.50
2019-03-06T17:49:49.365Z,5.30
2019-03-06T17:52:17.727Z,5.10
2019-03-06T17:54:45.986Z,5.23
2019-03-06T17:57:14.571Z,4.47
2019-03-06T17:59:43.357Z,5.00
2019-03-06T18:02:11.670Z,4.53
2019-03-06T18:04:40.250Z,5.23
2019-03-06T18:07:08.514Z,4.20
2019-03-06T18:09:36.798Z,4.80
2019-03-06T18:12:05.413Z,4.10
2019-03-06T18:14:33.689Z,3.17
2019-03-06T18:17:01.957Z,3.73
2019-03-06T18:19:30.563Z,4.07
2019-03-06T18:21:58.830Z,3.57
2019-03-06T18:24:27.153Z,3.80
2019-03-06T18:26:57.339Z,5.23
2019-03-06T18:29:25.601Z,3.80
2019-03-06T18:31:55.358Z,2.50
2019-03-06T18:34:23.945Z,4.63
2019-03-06T18:36:52.297Z,4.40
2019-03-06T18:39:20.629Z,3.20
2019-03-06T18:41:49.162Z,3.63
2019-03-06T18:44:17.745Z,3.73
2019-03-06T18:46:46.146Z,5.50
2019-03-06T18:49:14.407Z,5.60
2019-03-06T18:51:42.694Z,5.47
2019-03-06T18:54:10.986Z,4.37
2019-03-06T18:56:40.205Z,6.27
2019-03-06T18:59:08.561Z,6.00
2019-03-06T19:01:36.846Z,4.77
2019-03-06T19:04:05.177Z,4.63
2019-03-06T19:06:33.482Z,4.60
2019-03-06T19:09:01.721Z,5.80
2019-03-06T19:11:29.988Z,6.53
2019-03-06T19:13:58.574Z,4.97
2019-03-06T19:16:26.834Z,5.53
2019-03-06T19:18:55.125Z,5.30
2019-03-06T19:21:23.450Z,5.97
2019-03-06T19:23:51.734Z,6.63
2019-03-06T19:26:19.998Z,6.67
2019-03-06T19:28:48.281Z,7.57
2019-03-06T19:31:16.669Z,7.47
2019-03-06T19:33:44.957Z,8.07
2019-03-06T19:36:13.227Z,6.57
2019-03-06T19:38:41.514Z,6.37
2019-03-06T19:41:10.022Z,6.37
2019-03-06T19:43:38.310Z,6.23
2019-03-06T19:46:07.358Z,6.30
2019-03-06T19:48:35.654Z,5.47
2019-03-06T19:51:03.913Z,5.13
2019-03-06T19:53:32.211Z,5.03
2019-03-06T19:56:00.732Z,5.80
2019-03-06T19:58:29.023Z,5.30
2019-03-06T20:00:57.281Z,5.63
2019-03-06T20:03:25.990Z,4.80
2019-03-06T20:05:54.586Z,4.80
2019-03-06T20:08:22.953Z,4.70
2019-03-06T20:10:51.274Z,4.77
2019-03-06T20:13:19.558Z,4.47
2019-03-06T20:15:47.820Z,4.30
2019-03-06T20:18:16.170Z,4.40
2019-03-06T20:20:44.434Z,4.40
2019-03-06T20:23:12.987Z,5.17
2019-03-06T20:25:41.510Z,4.73
2019-03-06T20:28:09.966Z,4.93
2019-03-06T20:30:38.238Z,4.60
2019-03-06T20:33:06.522Z,5.20
2019-03-06T20:35:34.905Z,5.23
2019-03-06T20:38:03.242Z,5.23
2019-03-06T20:40:31.505Z,12.10
2019-03-06T20:42:59.785Z,9.13
2019-03-06T20:45:28.126Z,8.83
2019-03-06T20:47:56.418Z,6.93
2019-03-06T20:50:24.674Z,8.57
2019-03-06T20:52:53.076Z,7.47
2019-03-06T20:55:21.336Z,6.40
2019-03-06T20:57:49.589Z,6.30
2019-03-06T21:00:26.129Z,5.37
2019-03-06T21:02:54.439Z,5.63
2019-03-06T21:05:22.694Z,5.53
2019-03-06T21:07:51.297Z,6.50
2019-03-06T21:10:20.315Z,6.67
2019-03-06T21:12:48.606Z,5.53
2019-03-06T21:15:17.760Z,6.97
2019-03-06T21:17:47.028Z,6.10
2019-03-06T21:20:16.386Z,5.30
2019-03-06T21:22:44.645Z,5.57
2019-03-06T21:25:13.998Z,5.60
2019-03-06T21:27:42.333Z,5.60
2019-03-06T21:30:12.431Z,5.77
2019-03-06T21:32:42.212Z,5.50
2019-03-06T21:35:10.655Z,9.40
2019-03-06T21:37:38.909Z,5.00
2019-03-06T21:40:08.728Z,5.43
2019-03-06T21:42:36.987Z,5.17
2019-03-06T21:45:06.705Z,4.63
2019-03-06T21:47:34.970Z,4.87
2019-03-06T21:50:04.870Z,5.07
2019-03-06T21:52:33.122Z,5.63
2019-03-06T21:55:01.418Z,5.90
2019-03-06T21:57:29.678Z,5.70
2019-03-06T21:59:57.957Z,5.17
2019-03-06T22:02:26.320Z,6.47
2019-03-06T22:04:54.607Z,5.40
2019-03-06T22:07:22.876Z,5.10
2019-03-06T22:09:51.166Z,4.70
2019-03-06T22:12:19.454Z,5.90
2019-03-06T22:14:47.734Z,5.43
2019-03-06T22:17:16.277Z,12.00
2019-03-06T22:19:44.665Z,8.03
2019-03-06T22:22:12.938Z,5.93
2019-03-06T22:24:41.218Z,6.37
2019-03-06T22:27:09.478Z,5.27
2019-03-06T22:29:37.766Z,6.10
2019-03-06T22:32:06.225Z,6.00
2019-03-06T22:34:34.509Z,6.50
2019-03-06T22:37:02.778Z,6.57
2019-03-06T22:39:31.076Z,6.97
2019-03-06T22:41:59.337Z,6.20
2019-03-06T22:44:27.623Z,5.50
2019-03-06T22:46:55.892Z,6.73
2019-03-06T22:49:24.431Z,5.77
2019-03-06T22:51:52.750Z,7.10
2019-03-06T22:54:21.018Z,7.40
2019-03-06T22:56:49.301Z,5.70
2019-03-06T22:59:17.568Z,5.17
2019-03-06T23:01:45.921Z,5.37
2019-03-06T23:04:14.454Z,5.60
2019-03-06T23:06:42.809Z,5.57
2019-03-06T23:09:11.301Z,5.93
2019-03-06T23:11:39.757Z,5.83
2019-03-06T23:14:08.017Z,6.33
2019-03-06T23:16:36.302Z,4.90
2019-03-06T23:19:04.833Z,4.77
2019-03-06T23:21:33.117Z,4.83
2019-03-06T23:24:01.378Z,5.33
2019-03-06T23:26:30.437Z,4.77
2019-03-06T23:28:58.701Z,6.40
2019-03-06T23:31:26.983Z,5.80
2019-03-06T23:33:55.548Z,4.43
2019-03-06T23:36:24.087Z,6.10
2019-03-06T23:38:52.354Z,5.07
2019-03-06T23:41:20.641Z,5.87
2019-03-06T23:43:49.028Z,6.40
2019-03-06T23:46:17.318Z,5.87
2019-03-06T23:48:45.578Z,6.27
2019-03-06T23:51:15.514Z,5.80
2019-03-06T23:53:45.418Z,5.60
2019-03-06T23:56:13.705Z,6.43
2019-03-06T23:58:41.970Z,6.63
